This is the latest recevied weather packets stored in our database for station/object W7MB. If no packets are shown the sender has not sent any weather packets the latest 1 day(s).
| Time | Temp. | Humidity | Pressure | Rain* | Wind** | Luminosity | Snow |
|---|---|---|---|---|---|---|---|
| 1778028483 | 28.33° C | 30% | 1010 hPa | 0 mm | 0.89 m/s, 193° | - | - |
| 1778028123 | 28.33° C | 32% | 1010.1 hPa | 0 mm | 1.79 m/s, 197° | - | - |
| 1778027763 | 28.33° C | 31% | 1010.1 hPa | 0 mm | 2.24 m/s, 194° | - | - |
| 1778027403 | 28.89° C | 30% | 1010.2 hPa | 0 mm | 1.34 m/s, 206° | - | - |
| 1778027043 | 29.44° C | 29% | 1010 hPa | 0 mm | 0.89 m/s, 184° | - | - |
| 1778026683 | 29.44° C | 27% | 1010 hPa | 0 mm | 1.34 m/s, 202° | - | - |
| 1778026323 | 30° C | 26% | 1010 hPa | 0 mm | 0.89 m/s, 196° | - | - |
| 1778025963 | 30° C | 26% | 1010 hPa | 0 mm | 0.89 m/s, 221° | - | - |
| 1778025604 | 30.56° C | 25% | 1010.3 hPa | 0 mm | 0.45 m/s, 234° | - | - |
| 1778025243 | 30.56° C | 27% | 1010.1 hPa | 0 mm | 0.89 m/s, 240° | - | - |
| 1778024883 | 30.56° C | 25% | 1010.3 hPa | 0 mm | 0.45 m/s, 226° | - | - |
| 1778024523 | 30.56° C | 24% | 1010.3 hPa | 0 mm | 0.45 m/s, 232° | - | - |
| 1778024163 | 30.56° C | 24% | 1010.3 hPa | 0 mm | 1.34 m/s, 245° | - | - |
| 1778023803 | 30.56° C | 26% | 1010.2 hPa | 0 mm | 0.89 m/s, 235° | - | - |
| 1778023443 | 31.11° C | 25% | 1010.3 hPa | 0 mm | 0.45 m/s, 243° | - | - |
| 1778023083 | 31.11° C | 27% | 1010.3 hPa | 0 mm | 0.89 m/s, 201° | - | - |
| 1778022723 | 30.56° C | 26% | 1010.3 hPa | 0 mm | 0.89 m/s, 237° | - | - |
| 1778022363 | 30.56° C | 27% | 1010.4 hPa | 0 mm | 0.45 m/s, 257° | - | - |
| 1778022004 | 30° C | 29% | 1010.4 hPa | 0 mm | 0.89 m/s, 205° | - | - |
| 1778021643 | 29.44° C | 32% | 1010.4 hPa | 0 mm | 1.34 m/s, 189° | - | - |
| 1778021283 | 29.44° C | 30% | 1010.5 hPa | 0 mm | 0.89 m/s, 196° | - | - |
| 1778020923 | 29.44° C | 30% | 1010.4 hPa | 0 mm | 1.79 m/s, 193° | - | - |
| 1778020563 | 28.89° C | 31% | 1010.5 hPa | 0 mm | 1.79 m/s, 192° | - | - |
| 1778020203 | 28.33° C | 37% | 1010.6 hPa | 0 mm | 0.89 m/s, 201° | - | - |
| 1778019843 | 27.22° C | 39% | 1010.6 hPa | 0 mm | 0.45 m/s, 302° | - | - |
* Rain latest hour (hover to see other rain measurements)
** Current wind speed in m/s (hover to see current wind gust speed)